LOT4YA EPWA-EPPO
Flight info
| Callsign | LOT4YA |
|---|---|
| Flight time | 0h 33m |
| Altitude | 26000 |
| Route | LOLSI7G LOLSI DCT DIBLO DCT INDIG L980 MASIV MASIV3M |
| Aircraft | E75L/M-SDE3GILORVW/S |
Departure
| Time | 2026-05-04 07:08 |
|---|---|
| Airport | Warsaw Chopin Airport (EPWA) |
Arrival
| Time | 2026-05-04 07:42 |
|---|---|
| Airport | Poznań-Ławica Airport (EPPO) |
| Time | Latitude | Longitude | Altitude | Speed | Heading |
|---|---|---|---|---|---|
| 2026-05-04 06:57 | 52.17343 | 20.97077 | 340 ft | 0 kts | 241° |
| 2026-05-04 06:58 | 52.17343 | 20.97076 | 340 ft | 0 kts | 241° |
| 2026-05-04 06:58 | 52.17343 | 20.97077 | 340 ft | 1 kts | 241° |
| 2026-05-04 06:58 | 52.17350 | 20.97098 | 340 ft | 2 kts | 241° |
| 2026-05-04 06:58 | 52.17358 | 20.97119 | 341 ft | 2 kts | 241° |
| 2026-05-04 06:59 | 52.17365 | 20.97141 | 341 ft | 2 kts | 241° |
| 2026-05-04 06:59 | 52.17371 | 20.97163 | 341 ft | 2 kts | 271° |
| 2026-05-04 06:59 | 52.17365 | 20.97185 | 342 ft | 2 kts | 318° |
| 2026-05-04 06:59 | 52.17359 | 20.97191 | 342 ft | 0 kts | 332° |
| 2026-05-04 07:03 | 52.17360 | 20.97190 | 342 ft | 0 kts | 332° |
| 2026-05-04 07:03 | 52.17372 | 20.97180 | 342 ft | 3 kts | 331° |
| 2026-05-04 07:03 | 52.17419 | 20.97134 | 341 ft | 12 kts | 329° |
| 2026-05-04 07:03 | 52.17518 | 20.97045 | 339 ft | 18 kts | 331° |
| 2026-05-04 07:04 | 52.17616 | 20.96936 | 339 ft | 16 kts | 291° |
| 2026-05-04 07:04 | 52.17572 | 20.96755 | 337 ft | 19 kts | 234° |
| 2026-05-04 07:04 | 52.17490 | 20.96557 | 333 ft | 22 kts | 237° |
| 2026-05-04 07:04 | 52.17445 | 20.96380 | 332 ft | 15 kts | 290° |
| 2026-05-04 07:05 | 52.17535 | 20.96274 | 333 ft | 17 kts | 330° |
| 2026-05-04 07:05 | 52.17642 | 20.96181 | 335 ft | 17 kts | 332° |
| 2026-05-04 07:05 | 52.17750 | 20.96077 | 337 ft | 16 kts | 326° |
| 2026-05-04 07:05 | 52.17826 | 20.95964 | 339 ft | 13 kts | 302° |
| 2026-05-04 07:06 | 52.17889 | 20.95718 | 345 ft | 11 kts | 251° |
| 2026-05-04 07:06 | 52.17834 | 20.95639 | 346 ft | 11 kts | 181° |
| 2026-05-04 07:06 | 52.17750 | 20.95684 | 344 ft | 10 kts | 153° |
| 2026-05-04 07:07 | 52.17739 | 20.95693 | 344 ft | 0 kts | 151° |
| 2026-05-04 07:08 | 52.13044 | 20.99350 | 1895 ft | 174 kts | 179° |
| 2026-05-04 07:09 | 52.11897 | 20.98735 | 2503 ft | 181 kts | 208° |
| 2026-05-04 07:09 | 52.10739 | 20.97967 | 3238 ft | 183 kts | 202° |
| 2026-05-04 07:09 | 52.09539 | 20.97164 | 3699 ft | 200 kts | 204° |
| 2026-05-04 07:09 | 52.08213 | 20.96183 | 4082 ft | 221 kts | 206° |
| 2026-05-04 07:10 | 52.06765 | 20.95046 | 4443 ft | 244 kts | 207° |
| 2026-05-04 07:10 | 52.05178 | 20.93753 | 4924 ft | 262 kts | 210° |
| 2026-05-04 07:12 | 52.03139 | 20.73362 | 10165 ft | 283 kts | 267° |
| 2026-05-04 07:12 | 52.03062 | 20.70173 | 10813 ft | 288 kts | 267° |
| 2026-05-04 07:12 | 52.02983 | 20.66902 | 11356 ft | 296 kts | 267° |
| 2026-05-04 07:12 | 52.02900 | 20.63539 | 11856 ft | 305 kts | 267° |
| 2026-05-04 07:13 | 52.02815 | 20.60080 | 12350 ft | 313 kts | 267° |
| 2026-05-04 07:13 | 52.02726 | 20.56500 | 12926 ft | 319 kts | 269° |
| 2026-05-04 07:13 | 52.03113 | 20.52986 | 13530 ft | 324 kts | 288° |
| 2026-05-04 07:14 | 52.06197 | 20.39213 | 16171 ft | 330 kts | 290° |
| 2026-05-04 07:14 | 52.06711 | 20.35557 | 16769 ft | 332 kts | 276° |
| 2026-05-04 07:15 | 52.06963 | 20.31857 | 17362 ft | 334 kts | 277° |
| 2026-05-04 07:15 | 52.07276 | 20.28128 | 17956 ft | 337 kts | 278° |
| 2026-05-04 07:15 | 52.07617 | 20.24376 | 18540 ft | 340 kts | 278° |
| 2026-05-04 07:15 | 52.07973 | 20.20546 | 19127 ft | 342 kts | 278° |
| 2026-05-04 07:16 | 52.08331 | 20.16741 | 19692 ft | 346 kts | 278° |
| 2026-05-04 07:16 | 52.08693 | 20.12895 | 20235 ft | 349 kts | 278° |
| 2026-05-04 07:16 | 52.09061 | 20.08970 | 20791 ft | 352 kts | 278° |
| 2026-05-04 07:16 | 52.09426 | 20.05066 | 21335 ft | 355 kts | 278° |
| 2026-05-04 07:17 | 52.09798 | 20.01070 | 21884 ft | 358 kts | 278° |
| 2026-05-04 07:17 | 52.10169 | 19.97078 | 22408 ft | 361 kts | 279° |
| 2026-05-04 07:17 | 52.10540 | 19.93064 | 22919 ft | 364 kts | 279° |
| 2026-05-04 07:17 | 52.10915 | 19.89001 | 23440 ft | 366 kts | 279° |
| 2026-05-04 07:18 | 52.11293 | 19.84878 | 23943 ft | 364 kts | 279° |
| 2026-05-04 07:18 | 52.11665 | 19.80807 | 24040 ft | 373 kts | 279° |
| 2026-05-04 07:18 | 52.12055 | 19.76530 | 24065 ft | 388 kts | 279° |
| 2026-05-04 07:18 | 52.12453 | 19.72141 | 24060 ft | 397 kts | 279° |
| 2026-05-04 07:19 | 52.12851 | 19.67734 | 24049 ft | 398 kts | 279° |
| 2026-05-04 07:19 | 52.13255 | 19.63242 | 24045 ft | 397 kts | 279° |
| 2026-05-04 07:19 | 52.13650 | 19.58820 | 24047 ft | 396 kts | 279° |
| 2026-05-04 07:19 | 52.14044 | 19.54402 | 24045 ft | 396 kts | 279° |
| 2026-05-04 07:20 | 52.14436 | 19.49988 | 24044 ft | 396 kts | 279° |
| 2026-05-04 07:20 | 52.14827 | 19.45555 | 24043 ft | 396 kts | 279° |
| 2026-05-04 07:20 | 52.15214 | 19.41149 | 24041 ft | 396 kts | 279° |
| 2026-05-04 07:20 | 52.15601 | 19.36731 | 24037 ft | 391 kts | 279° |
| 2026-05-04 07:22 | 52.18173 | 19.06847 | 22577 ft | 374 kts | 277° |
| 2026-05-04 07:22 | 52.18530 | 19.02628 | 22161 ft | 371 kts | 277° |
| 2026-05-04 07:23 | 52.18876 | 18.98516 | 21758 ft | 369 kts | 277° |
| 2026-05-04 07:23 | 52.19222 | 18.94383 | 21352 ft | 367 kts | 277° |
| 2026-05-04 07:23 | 52.19562 | 18.90310 | 20950 ft | 365 kts | 277° |
| 2026-05-04 07:23 | 52.19900 | 18.86247 | 20550 ft | 362 kts | 277° |
| 2026-05-04 07:24 | 52.20238 | 18.82163 | 20148 ft | 360 kts | 277° |
| 2026-05-04 07:24 | 52.20567 | 18.78174 | 19754 ft | 358 kts | 277° |
| 2026-05-04 07:24 | 52.20895 | 18.74173 | 19362 ft | 356 kts | 277° |
| 2026-05-04 07:24 | 52.21220 | 18.70203 | 18974 ft | 353 kts | 277° |
| 2026-05-04 07:25 | 52.21537 | 18.66297 | 18588 ft | 351 kts | 277° |
| 2026-05-04 07:26 | 52.23698 | 18.39291 | 15935 ft | 338 kts | 276° |
| 2026-05-04 07:27 | 52.23997 | 18.35494 | 15562 ft | 337 kts | 276° |
| 2026-05-04 07:27 | 52.24292 | 18.31720 | 15193 ft | 335 kts | 276° |
| 2026-05-04 07:27 | 52.24583 | 18.27992 | 14830 ft | 333 kts | 275° |
| 2026-05-04 07:27 | 52.24874 | 18.24241 | 14459 ft | 332 kts | 275° |
| 2026-05-04 07:28 | 52.25163 | 18.20515 | 14094 ft | 330 kts | 275° |
| 2026-05-04 07:28 | 52.25446 | 18.16836 | 13729 ft | 328 kts | 275° |
| 2026-05-04 07:28 | 52.25726 | 18.13195 | 13374 ft | 326 kts | 275° |
| 2026-05-04 07:28 | 52.26006 | 18.09518 | 13015 ft | 324 kts | 275° |
| 2026-05-04 07:29 | 52.26282 | 18.05895 | 12661 ft | 323 kts | 275° |
| 2026-05-04 07:29 | 52.26556 | 18.02281 | 12306 ft | 321 kts | 275° |
| 2026-05-04 07:29 | 52.26826 | 17.98702 | 11954 ft | 319 kts | 275° |
| 2026-05-04 07:29 | 52.27095 | 17.95125 | 11600 ft | 315 kts | 275° |
| 2026-05-04 07:30 | 52.27355 | 17.91643 | 11253 ft | 308 kts | 275° |
| 2026-05-04 07:30 | 52.27610 | 17.88227 | 10916 ft | 300 kts | 275° |
| 2026-05-04 07:30 | 52.27860 | 17.84855 | 10582 ft | 292 kts | 275° |
| 2026-05-04 07:30 | 52.28096 | 17.81661 | 10262 ft | 282 kts | 275° |
| 2026-05-04 07:31 | 52.28326 | 17.78548 | 9957 ft | 272 kts | 275° |
| 2026-05-04 07:31 | 52.28545 | 17.75556 | 9661 ft | 263 kts | 275° |
| 2026-05-04 07:33 | 52.29982 | 17.55701 | 7765 ft | 249 kts | 275° |
| 2026-05-04 07:33 | 52.30182 | 17.52904 | 7492 ft | 248 kts | 275° |
| 2026-05-04 07:33 | 52.30390 | 17.50127 | 7215 ft | 247 kts | 275° |
| 2026-05-04 07:33 | 52.30583 | 17.47339 | 6941 ft | 247 kts | 276° |
| 2026-05-04 07:34 | 52.30777 | 17.44555 | 6667 ft | 246 kts | 276° |
| 2026-05-04 07:34 | 52.30970 | 17.41803 | 6397 ft | 246 kts | 276° |
| 2026-05-04 07:34 | 52.31163 | 17.39034 | 6124 ft | 246 kts | 276° |
| 2026-05-04 07:34 | 52.31570 | 17.36338 | 5854 ft | 247 kts | 287° |
| 2026-05-04 07:35 | 52.32108 | 17.33648 | 5545 ft | 246 kts | 286° |
| 2026-05-04 07:35 | 52.32633 | 17.31012 | 5244 ft | 241 kts | 286° |
| 2026-05-04 07:35 | 52.33134 | 17.28485 | 4998 ft | 232 kts | 286° |
| 2026-05-04 07:35 | 52.33626 | 17.26001 | 4665 ft | 228 kts | 285° |
| 2026-05-04 07:36 | 52.34091 | 17.23653 | 4465 ft | 206 kts | 285° |
| 2026-05-04 07:36 | 52.34507 | 17.21551 | 4493 ft | 184 kts | 285° |
| 2026-05-04 07:38 | 52.37127 | 17.08218 | 3407 ft | 177 kts | 284° |
| 2026-05-04 07:38 | 52.37489 | 17.06374 | 3116 ft | 164 kts | 284° |
| 2026-05-04 07:38 | 52.37814 | 17.04662 | 2879 ft | 154 kts | 283° |
| 2026-05-04 07:38 | 52.38122 | 17.03053 | 2632 ft | 143 kts | 283° |
| 2026-05-04 07:39 | 52.38414 | 17.01545 | 2423 ft | 137 kts | 283° |
| 2026-05-04 07:39 | 52.38704 | 17.00053 | 2252 ft | 138 kts | 283° |
| 2026-05-04 07:39 | 52.38999 | 16.98542 | 2078 ft | 140 kts | 283° |
| 2026-05-04 07:39 | 52.39294 | 16.97032 | 1900 ft | 140 kts | 283° |
| 2026-05-04 07:40 | 52.39588 | 16.95529 | 1719 ft | 139 kts | 283° |
| 2026-05-04 07:40 | 52.39883 | 16.94023 | 1535 ft | 139 kts | 283° |
| 2026-05-04 07:40 | 52.40174 | 16.92528 | 1352 ft | 138 kts | 283° |
| 2026-05-04 07:40 | 52.40483 | 16.91016 | 1164 ft | 138 kts | 284° |
| 2026-05-04 07:41 | 52.40776 | 16.89540 | 1017 ft | 136 kts | 282° |
| 2026-05-04 07:41 | 52.41068 | 16.88053 | 854 ft | 138 kts | 284° |
| 2026-05-04 07:41 | 52.41354 | 16.86570 | 654 ft | 137 kts | 282° |
| 2026-05-04 07:41 | 52.41634 | 16.85070 | 463 ft | 137 kts | 283° |
| 2026-05-04 07:42 | 52.41918 | 16.83590 | 322 ft | 132 kts | 282° |
| 2026-05-04 07:42 | 52.42151 | 16.82370 | 313 ft | 82 kts | 287° |
| 2026-05-04 07:42 | 52.42258 | 16.81820 | 313 ft | 32 kts | 287° |
| 2026-05-04 07:42 | 52.42299 | 16.81460 | 313 ft | 32 kts | 268° |
| 2026-05-04 07:43 | 52.42265 | 16.81200 | 313 ft | 15 kts | 229° |
| 2026-05-04 07:43 | 52.42200 | 16.81234 | 313 ft | 13 kts | 110° |
| 2026-05-04 07:43 | 52.42172 | 16.81378 | 313 ft | 13 kts | 105° |
| 2026-05-04 07:43 | 52.42143 | 16.81526 | 313 ft | 14 kts | 107° |
| 2026-05-04 07:44 | 52.42113 | 16.81686 | 313 ft | 15 kts | 107° |
| 2026-05-04 07:44 | 52.42080 | 16.81854 | 313 ft | 16 kts | 108° |
| 2026-05-04 07:44 | 52.42046 | 16.82038 | 313 ft | 17 kts | 113° |
| 2026-05-04 07:44 | 52.42005 | 16.82223 | 313 ft | 16 kts | 98° |
| 2026-05-04 07:45 | 52.41973 | 16.82410 | 313 ft | 17 kts | 108° |
| 2026-05-04 07:45 | 52.41936 | 16.82604 | 313 ft | 18 kts | 108° |
| 2026-05-04 07:45 | 52.41896 | 16.82808 | 313 ft | 18 kts | 107° |
| 2026-05-04 07:45 | 52.41853 | 16.82925 | 313 ft | 11 kts | 172° |
| 2026-05-04 07:46 | 52.41773 | 16.82893 | 313 ft | 12 kts | 198° |
| 2026-05-04 07:46 | 52.41687 | 16.82863 | 313 ft | 13 kts | 173° |
| 2026-05-04 07:46 | 52.41609 | 16.82845 | 313 ft | 8 kts | 194° |
| 2026-05-04 07:46 | 52.41577 | 16.82833 | 313 ft | 0 kts | 193° |
| 2026-05-04 07:47 | 52.41574 | 16.82832 | 313 ft | 0 kts | 193° |